Aérodrome :
LOGIN :

S'inscrire | Disclaimer

   EN    FR    IT 

 










Légende :    VFR   VFR Marginal   IFR   IFR Intensif   IFR Très Intensif
Visi : 
Plafond : 
>= 8 km
>= 3000ft
5 à 8 km
1000 à 3000 ft
1500m à 5 km
500 à 1000 ft
800 à 1500m
200 à 500 ft
< 800m
< 200 ft
Symboles :   Orages  Brouillard  Fortes neiges  Fortes précipitations  Vent > 20 kt
SIGMETs :   Divers  Orages  Givrage  Turbulence  Onde Orograph.  Cendres Volcan.






- Altitude de l'aérodrome : 978 ft
- Code IATA : LNZ


LOWL - Linz

DERNIER METAR :
  • 280750Z VRB02KT 0300 R26/0400N FG FEW001 BKN002 03/03 Q1024 NOSIG

METARs EXPIRÉS :
  • 280720Z 32003KT 290V360 0400 R26/1000N FG FEW001 BKN002 02/02 Q1024 NOSIG
  • 280650Z 29004KT 0600 R26/0650N FG FEW001 BKN002 01/01 Q1024 NOSIG
  • 280620Z 25003KT 220V290 0350 R26/0450N FG FEW001 BKN002 01/01 Q1023 NOSIG
  • 280550Z 23003KT 0500 R26/0500N FG SCT001 M00/M00 Q1023 TEMPO 1500 BR
  • 280520Z 23003KT 0600 R26/0900N FG SCT001 M00/M00 Q1023 TEMPO BKN001

TAF AMD TAF LOWL
Valide du 28 à 06h jusqu'au 29 à 06h UTC


280657Z 2806/2906 09005KT 1500 SCT003 TX09/2814Z TN00/2806Z
TEMPO 2806/2809 0100 FZFG VV001
BECMG 2810/2811 9999
BECMG 2818/2821 1200 BCFG SCT002
TEMPO 2822/2906 0300 FG BKN003



MET'MAP, la Météo Aéronautique d'un coup d'oeil ! - Copyright ORBIFLY Décembre 2007 - Disclaimer

ORBIFLY MET'MAP TEAM :

Programmation & Développement : Alexandra Zaïnal
Sur une idée originale de : Baudouin d'Aumeries
Assistance à la programmation : Marc-Olivier Méhu
Soutien technique & logistique : Manuel Goepfert

Contact : metmap@orbifly.com




SOURCES & CREDITS :

   NOAA